sensor_id;sensor_type;location;lat;lon;timestamp;pressure;altitude;pressure_sealevel;temperature;humidity
64158;BME280;50449;51.528;5.076;2023-03-15T00:01:40;101095.25;;;11.14;53.27
64158;BME280;50449;51.528;5.076;2023-03-15T00:04:06;101090.06;;;11.13;53.35
64158;BME280;50449;51.528;5.076;2023-03-15T00:06:33;101091.13;;;11.12;53.36
64158;BME280;50449;51.528;5.076;2023-03-15T00:09:01;101090.28;;;11.11;53.38
64158;BME280;50449;51.528;5.076;2023-03-15T00:11:28;101094.06;;;11.10;53.27
64158;BME280;50449;51.528;5.076;2023-03-15T00:13:57;101096.19;;;11.08;53.45
64158;BME280;50449;51.528;5.076;2023-03-15T00:16:22;101099.13;;;11.07;53.50
64158;BME280;50449;51.528;5.076;2023-03-15T00:18:52;101099.94;;;11.07;53.43
64158;BME280;50449;51.528;5.076;2023-03-15T00:21:18;101101.00;;;11.06;53.79
64158;BME280;50449;51.528;5.076;2023-03-15T00:23:44;101103.69;;;11.06;53.57
64158;BME280;50449;51.528;5.076;2023-03-15T00:26:10;101115.81;;;11.03;53.48
64158;BME280;50449;51.528;5.076;2023-03-15T00:28:36;101110.41;;;11.03;53.23
64158;BME280;50449;51.528;5.076;2023-03-15T00:31:19;101112.28;;;11.03;53.45
64158;BME280;50449;51.528;5.076;2023-03-15T00:33:45;101125.22;;;11.01;53.59
64158;BME280;50449;51.528;5.076;2023-03-15T00:36:12;101118.19;;;11.00;53.52
64158;BME280;50449;51.528;5.076;2023-03-15T00:38:39;101116.53;;;10.99;53.46
64158;BME280;50449;51.528;5.076;2023-03-15T00:41:07;101120.28;;;10.98;53.55
64158;BME280;50449;51.528;5.076;2023-03-15T00:43:33;101120.53;;;10.96;53.57
64158;BME280;50449;51.528;5.076;2023-03-15T00:45:58;101125.09;;;10.96;53.41
64158;BME280;50449;51.528;5.076;2023-03-15T00:48:24;101128.88;;;10.95;53.44
64158;BME280;50449;51.528;5.076;2023-03-15T00:50:49;101123.69;;;10.93;53.77
64158;BME280;50449;51.528;5.076;2023-03-15T00:53:14;101131.22;;;10.91;53.82
64158;BME280;50449;51.528;5.076;2023-03-15T00:55:40;101127.69;;;10.91;53.91
64158;BME280;50449;51.528;5.076;2023-03-15T00:58:06;101120.66;;;10.90;53.79
64158;BME280;50449;51.528;5.076;2023-03-15T01:00:32;101120.06;;;10.88;53.76
64158;BME280;50449;51.528;5.076;2023-03-15T01:02:57;101125.47;;;10.88;53.86
64158;BME280;50449;51.528;5.076;2023-03-15T01:05:22;101131.94;;;10.87;53.81
64158;BME280;50449;51.528;5.076;2023-03-15T01:07:48;101130.28;;;10.86;53.74
64158;BME280;50449;51.528;5.076;2023-03-15T01:10:14;101132.16;;;10.85;53.79
64158;BME280;50449;51.528;5.076;2023-03-15T01:12:40;101136.75;;;10.85;54.03
64158;BME280;50449;51.528;5.076;2023-03-15T01:15:07;101139.44;;;10.85;53.78
64158;BME280;50449;51.528;5.076;2023-03-15T01:17:33;101138.63;;;10.84;53.97
64158;BME280;50449;51.528;5.076;2023-03-15T01:19:59;101141.56;;;10.82;53.74
64158;BME280;50449;51.528;5.076;2023-03-15T01:22:25;101139.09;;;10.81;53.82
64158;BME280;50449;51.528;5.076;2023-03-15T01:24:50;101149.06;;;10.80;54.12
64158;BME280;50449;51.528;5.076;2023-03-15T01:27:15;101142.84;;;10.80;53.80
64158;BME280;50449;51.528;5.076;2023-03-15T01:29:41;101147.44;;;10.79;53.82
64158;BME280;50449;51.528;5.076;2023-03-15T01:32:07;101150.13;;;10.79;53.87
64158;BME280;50449;51.528;5.076;2023-03-15T01:34:33;101153.88;;;10.78;53.93
64158;BME280;50449;51.528;5.076;2023-03-15T01:36:58;101153.06;;;10.78;53.89
64158;BME280;50449;51.528;5.076;2023-03-15T01:39:25;101163.88;;;10.78;53.94
64158;BME280;50449;51.528;5.076;2023-03-15T01:41:50;101164.94;;;10.77;53.94
64158;BME280;50449;51.528;5.076;2023-03-15T01:44:17;101164.94;;;10.77;53.89
64158;BME280;50449;51.528;5.076;2023-03-15T01:46:43;101164.13;;;10.76;53.86
64158;BME280;50449;51.528;5.076;2023-03-15T01:49:21;101171.38;;;10.76;53.82
64158;BME280;50449;51.528;5.076;2023-03-15T01:51:54;101189.47;;;10.75;54.09
64158;BME280;50449;51.528;5.076;2023-03-15T01:54:26;101187.03;;;10.74;53.98
64158;BME280;50449;51.528;5.076;2023-03-15T01:57:02;101186.19;;;10.73;53.90
64158;BME280;50449;51.528;5.076;2023-03-15T01:59:39;101188.31;;;10.71;54.10
64158;BME280;50449;51.528;5.076;2023-03-15T02:02:07;101188.75;;;10.68;54.01
64158;BME280;50449;51.528;5.076;2023-03-15T02:04:46;101202.25;;;10.68;54.08
64158;BME280;50449;51.528;5.076;2023-03-15T02:07:15;101197.72;;;10.69;54.05
64158;BME280;50449;51.528;5.076;2023-03-15T02:10:03;101193.34;;;10.68;53.96
64158;BME280;50449;51.528;5.076;2023-03-15T02:12:32;101196.31;;;10.66;53.89
64158;BME280;50449;51.528;5.076;2023-03-15T02:14:59;101201.09;;;10.64;53.99
64158;BME280;50449;51.528;5.076;2023-03-15T02:17:36;101203.81;;;10.64;53.67
64158;BME280;50449;51.528;5.076;2023-03-15T02:27:39;101204.28;;;10.61;54.13
64158;BME280;50449;51.528;5.076;2023-03-15T02:30:06;101203.22;;;10.62;54.04
64158;BME280;50449;51.528;5.076;2023-03-15T02:32:31;101204.03;;;10.63;53.93
64158;BME280;50449;51.528;5.076;2023-03-15T02:34:57;101204.28;;;10.61;54.02
64158;BME280;50449;51.528;5.076;2023-03-15T02:37:22;101206.97;;;10.61;54.07
64158;BME280;50449;51.528;5.076;2023-03-15T02:39:48;101199.91;;;10.60;54.06
64158;BME280;50449;51.528;5.076;2023-03-15T02:42:13;101213.41;;;10.60;54.10
64158;BME280;50449;51.528;5.076;2023-03-15T02:44:42;101207.41;;;10.58;54.17
64158;BME280;50449;51.528;5.076;2023-03-15T02:47:26;101210.38;;;10.56;54.22
64158;BME280;50449;51.528;5.076;2023-03-15T02:49:54;101221.38;;;10.55;54.21
64158;BME280;50449;51.528;5.076;2023-03-15T02:52:21;101216.00;;;10.55;54.18
64158;BME280;50449;51.528;5.076;2023-03-15T02:54:47;101219.75;;;10.54;54.16
64158;BME280;50449;51.528;5.076;2023-03-15T02:57:14;101221.84;;;10.52;54.40
64158;BME280;50449;51.528;5.076;2023-03-15T02:59:39;101230.78;;;10.52;54.43
64158;BME280;50449;51.528;5.076;2023-03-15T03:02:07;101238.88;;;10.52;54.27
64158;BME280;50449;51.528;5.076;2023-03-15T03:04:33;101246.97;;;10.52;54.24
64158;BME280;50449;51.528;5.076;2023-03-15T03:06:58;101248.88;;;10.52;54.23
64158;BME280;50449;51.528;5.076;2023-03-15T03:09:24;101250.75;;;10.51;54.11
64158;BME280;50449;51.528;5.076;2023-03-15T03:11:49;101254.50;;;10.50;54.23
64158;BME280;50449;51.528;5.076;2023-03-15T03:14:15;101261.78;;;10.50;54.23
64158;BME280;50449;51.528;5.076;2023-03-15T03:16:41;101252.84;;;10.49;54.26
64158;BME280;50449;51.528;5.076;2023-03-15T03:19:10;101269.88;;;10.50;54.38
64158;BME280;50449;51.528;5.076;2023-03-15T03:21:38;101273.66;;;10.49;54.21
64158;BME280;50449;51.528;5.076;2023-03-15T03:24:03;101270.34;;;10.47;54.28
64158;BME280;50449;51.528;5.076;2023-03-15T03:26:29;101281.16;;;10.47;54.29
64158;BME280;50449;51.528;5.076;2023-03-15T03:28:57;101281.38;;;10.45;54.42
64158;BME280;50449;51.528;5.076;2023-03-15T03:31:24;101294.88;;;10.45;54.26
64158;BME280;50449;51.528;5.076;2023-03-15T03:33:50;101283.25;;;10.45;54.09
64158;BME280;50449;51.528;5.076;2023-03-15T03:36:16;101290.53;;;10.44;54.17
64158;BME280;50449;51.528;5.076;2023-03-15T03:38:43;101285.34;;;10.43;54.20
64158;BME280;50449;51.528;5.076;2023-03-15T03:41:09;101290.53;;;10.44;54.06
64158;BME280;50449;51.528;5.076;2023-03-15T03:43:35;101293.44;;;10.43;54.17
64158;BME280;50449;51.528;5.076;2023-03-15T03:46:01;101286.41;;;10.42;54.08
64158;BME280;50449;51.528;5.076;2023-03-15T03:48:26;101297.22;;;10.42;54.25
64158;BME280;50449;51.528;5.076;2023-03-15T03:50:51;101296.41;;;10.41;54.26
64158;BME280;50449;51.528;5.076;2023-03-15T03:53:17;101306.59;;;10.39;54.34
64158;BME280;50449;51.528;5.076;2023-03-15T03:55:42;101303.91;;;10.39;54.16
64158;BME280;50449;51.528;5.076;2023-03-15T03:58:08;101310.56;;;10.36;54.23
64158;BME280;50449;51.528;5.076;2023-03-15T04:00:34;101318.69;;;10.36;54.19
64158;BME280;50449;51.528;5.076;2023-03-15T04:03:00;101318.06;;;10.34;54.13
64158;BME280;50449;51.528;5.076;2023-03-15T04:05:26;101315.59;;;10.33;54.10
64158;BME280;50449;51.528;5.076;2023-03-15T04:07:52;101325.56;;;10.32;54.34
64158;BME280;50449;51.528;5.076;2023-03-15T04:10:17;101329.34;;;10.31;54.03
64158;BME280;50449;51.528;5.076;2023-03-15T04:12:43;101333.06;;;10.30;54.05
64158;BME280;50449;51.528;5.076;2023-03-15T04:15:10;101342.22;;;10.29;54.10
64158;BME280;50449;51.528;5.076;2023-03-15T04:17:38;101349.50;;;10.29;54.20
64158;BME280;50449;51.528;5.076;2023-03-15T04:20:04;101347.84;;;10.28;54.20
64158;BME280;50449;51.528;5.076;2023-03-15T04:22:36;101343.47;;;10.27;53.89
64158;BME280;50449;51.528;5.076;2023-03-15T04:25:02;101354.28;;;10.27;54.25
64158;BME280;50449;51.528;5.076;2023-03-15T04:27:28;101351.78;;;10.25;54.22
64158;BME280;50449;51.528;5.076;2023-03-15T04:29:54;101361.78;;;10.25;53.99
64158;BME280;50449;51.528;5.076;2023-03-15T04:32:19;101363.66;;;10.24;54.13
64158;BME280;50449;51.528;5.076;2023-03-15T04:34:45;101369.25;;;10.23;54.21
64158;BME280;50449;51.528;5.076;2023-03-15T04:37:16;101357.88;;;10.21;54.26
64158;BME280;50449;51.528;5.076;2023-03-15T04:39:41;101377.81;;;10.19;54.05
64158;BME280;50449;51.528;5.076;2023-03-15T04:42:07;101370.53;;;10.20;54.18
64158;BME280;50449;51.528;5.076;2023-03-15T04:44:32;101376.19;;;10.18;53.99
64158;BME280;50449;51.528;5.076;2023-03-15T04:46:58;101377.47;;;10.16;54.06
64158;BME280;50449;51.528;5.076;2023-03-15T04:49:23;101377.47;;;10.16;54.18
64158;BME280;50449;51.528;5.076;2023-03-15T04:51:48;101375.78;;;10.15;54.08
64158;BME280;50449;51.528;5.076;2023-03-15T04:54:14;101378.72;;;10.13;54.07
64158;BME280;50449;51.528;5.076;2023-03-15T04:56:39;101391.38;;;10.13;54.17
64158;BME280;50449;51.528;5.076;2023-03-15T04:59:06;101384.34;;;10.12;54.27
64158;BME280;50449;51.528;5.076;2023-03-15T05:01:32;101388.09;;;10.11;54.06
64158;BME280;50449;51.528;5.076;2023-03-15T05:03:57;101383.72;;;10.10;54.29
64158;BME280;50449;51.528;5.076;2023-03-15T05:06:23;101390.19;;;10.09;54.05
64158;BME280;50449;51.528;5.076;2023-03-15T05:08:49;101402.88;;;10.08;54.34
64158;BME280;50449;51.528;5.076;2023-03-15T05:11:15;101400.38;;;10.07;53.96
64158;BME280;50449;51.528;5.076;2023-03-15T05:13:41;101403.28;;;10.05;54.18
64158;BME280;50449;51.528;5.076;2023-03-15T05:16:07;101402.47;;;10.05;54.42
64158;BME280;50449;51.528;5.076;2023-03-15T05:18:32;101403.53;;;10.04;54.21
64158;BME280;50449;51.528;5.076;2023-03-15T05:20:58;101406.44;;;10.02;54.11
64158;BME280;50449;51.528;5.076;2023-03-15T05:23:24;101405.84;;;10.00;54.17
64158;BME280;50449;51.528;5.076;2023-03-15T05:25:53;101410.41;;;10.00;54.22
64158;BME280;50449;51.528;5.076;2023-03-15T05:28:23;101417.69;;;9.99;54.06
64158;BME280;50449;51.528;5.076;2023-03-15T05:30:50;101416.06;;;9.98;54.15
64158;BME280;50449;51.528;5.076;2023-03-15T05:33:16;101417.09;;;9.97;54.09
64158;BME280;50449;51.528;5.076;2023-03-15T05:35:42;101418.16;;;9.96;53.76
64158;BME280;50449;51.528;5.076;2023-03-15T05:38:09;101414.63;;;9.95;54.07
64158;BME280;50449;51.528;5.076;2023-03-15T05:40:40;101419.16;;;9.95;54.09
64158;BME280;50449;51.528;5.076;2023-03-15T05:43:06;101424.81;;;9.93;53.81
64158;BME280;50449;51.528;5.076;2023-03-15T05:45:31;101431.25;;;9.92;54.11
64158;BME280;50449;51.528;5.076;2023-03-15T05:47:56;101441.22;;;9.92;54.10
64158;BME280;50449;51.528;5.076;2023-03-15T05:50:22;101443.31;;;9.90;53.97
64158;BME280;50449;51.528;5.076;2023-03-15T05:52:50;101448.69;;;9.90;54.19
64158;BME280;50449;51.528;5.076;2023-03-15T05:55:16;101453.50;;;9.88;54.15
64158;BME280;50449;51.528;5.076;2023-03-15T05:57:42;101454.53;;;9.87;54.12
64158;BME280;50449;51.528;5.076;2023-03-15T06:00:08;101459.13;;;9.86;54.01
64158;BME280;50449;51.528;5.076;2023-03-15T06:02:34;101456.63;;;9.85;53.99
64158;BME280;50449;51.528;5.076;2023-03-15T06:05:00;101464.72;;;9.85;54.06
64158;BME280;50449;51.528;5.076;2023-03-15T06:07:25;101465.78;;;9.84;54.09
64158;BME280;50449;51.528;5.076;2023-03-15T06:09:51;101471.38;;;9.82;53.89
64158;BME280;50449;51.528;5.076;2023-03-15T06:12:16;101475.16;;;9.81;54.06
64158;BME280;50449;51.528;5.076;2023-03-15T06:14:41;101484.25;;;9.80;54.16
64158;BME280;50449;51.528;5.076;2023-03-15T06:17:07;101496.13;;;9.79;53.94
64158;BME280;50449;51.528;5.076;2023-03-15T06:19:33;101500.69;;;9.79;54.01
64158;BME280;50449;51.528;5.076;2023-03-15T06:21:58;101504.66;;;9.76;54.17
64158;BME280;50449;51.528;5.076;2023-03-15T06:24:23;101513.56;;;9.77;53.93
64158;BME280;50449;51.528;5.076;2023-03-15T06:26:49;101511.94;;;9.75;54.07
64158;BME280;50449;51.528;5.076;2023-03-15T06:29:15;101516.72;;;9.73;54.06
64158;BME280;50449;51.528;5.076;2023-03-15T06:31:41;101516.72;;;9.73;53.87
64158;BME280;50449;51.528;5.076;2023-03-15T06:34:07;101523.13;;;9.72;53.77
64158;BME280;50449;51.528;5.076;2023-03-15T06:36:33;101529.59;;;9.71;54.10
64158;BME280;50449;51.528;5.076;2023-03-15T06:39:01;101531.47;;;9.71;54.08
64158;BME280;50449;51.528;5.076;2023-03-15T06:41:26;101531.66;;;9.69;53.92
64158;BME280;50449;51.528;5.076;2023-03-15T06:43:52;101535.41;;;9.68;53.89
64158;BME280;50449;51.528;5.076;2023-03-15T06:46:17;101546.41;;;9.67;53.71
64158;BME280;50449;51.528;5.076;2023-03-15T06:48:43;101538.56;;;9.65;54.02
64158;BME280;50449;51.528;5.076;2023-03-15T06:51:08;101550.16;;;9.66;53.91
64158;BME280;50449;51.528;5.076;2023-03-15T06:53:33;101545.81;;;9.65;53.95
64158;BME280;50449;51.528;5.076;2023-03-15T06:55:59;101554.94;;;9.64;54.03
64158;BME280;50449;51.528;5.076;2023-03-15T06:58:24;101553.31;;;9.63;54.06
64158;BME280;50449;51.528;5.076;2023-03-15T07:00:50;101560.53;;;9.62;54.04
64158;BME280;50449;51.528;5.076;2023-03-15T07:03:15;101571.34;;;9.62;53.99
64158;BME280;50449;51.528;5.076;2023-03-15T07:05:40;101561.59;;;9.61;53.97
64158;BME280;50449;51.528;5.076;2023-03-15T07:08:06;101576.97;;;9.61;54.07
64158;BME280;50449;51.528;5.076;2023-03-15T07:10:32;101579.03;;;9.59;54.16
64158;BME280;50449;51.528;5.076;2023-03-15T07:12:57;101574.47;;;9.59;53.99
64158;BME280;50449;51.528;5.076;2023-03-15T07:15:23;101579.03;;;9.59;54.09
64158;BME280;50449;51.528;5.076;2023-03-15T07:17:48;101580.09;;;9.58;54.08
64158;BME280;50449;51.528;5.076;2023-03-15T07:20:13;101584.66;;;9.57;54.19
64158;BME280;50449;51.528;5.076;2023-03-15T07:22:39;101582.81;;;9.58;54.07
64158;BME280;50449;51.528;5.076;2023-03-15T07:25:05;101585.69;;;9.56;53.97
64158;BME280;50449;51.528;5.076;2023-03-15T07:27:31;101600.00;;;9.57;54.03
64158;BME280;50449;51.528;5.076;2023-03-15T07:29:57;101602.69;;;9.57;53.89
64158;BME280;50449;51.528;5.076;2023-03-15T07:32:22;101603.75;;;9.56;54.12
64158;BME280;50449;51.528;5.076;2023-03-15T07:34:48;101604.78;;;9.54;53.94
64158;BME280;50449;51.528;5.076;2023-03-15T07:37:13;101609.34;;;9.54;54.27
64158;BME280;50449;51.528;5.076;2023-03-15T07:39:39;101610.19;;;9.54;54.06
64158;BME280;50449;51.528;5.076;2023-03-15T07:42:05;101620.97;;;9.54;53.95
64158;BME280;50449;51.528;5.076;2023-03-15T07:44:31;101629.91;;;9.55;53.96
64158;BME280;50449;51.528;5.076;2023-03-15T07:46:57;101629.06;;;9.54;54.12
64158;BME280;50449;51.528;5.076;2023-03-15T07:49:23;101630.94;;;9.54;54.04
64158;BME280;50449;51.528;5.076;2023-03-15T07:51:51;101634.44;;;9.54;53.97
64158;BME280;50449;51.528;5.076;2023-03-15T07:54:17;101635.50;;;9.53;53.98
64158;BME280;50449;51.528;5.076;2023-03-15T07:56:43;101644.66;;;9.52;53.91
64158;BME280;50449;51.528;5.076;2023-03-15T07:59:08;101653.56;;;9.53;54.24
64158;BME280;50449;51.528;5.076;2023-03-15T08:01:34;101661.84;;;9.51;54.01
64158;BME280;50449;51.528;5.076;2023-03-15T08:03:59;101665.38;;;9.52;54.35
64158;BME280;50449;51.528;5.076;2023-03-15T08:06:24;101676.16;;;9.52;54.04
64158;BME280;50449;51.528;5.076;2023-03-15T08:08:50;101677.03;;;9.52;53.90
64158;BME280;50449;51.528;5.076;2023-03-15T08:11:15;101676.16;;;9.52;54.12
64158;BME280;50449;51.528;5.076;2023-03-15T08:13:41;101679.72;;;9.52;53.97
64158;BME280;50449;51.528;5.076;2023-03-15T08:16:06;101679.91;;;9.51;54.01
64158;BME280;50449;51.528;5.076;2023-03-15T08:18:32;101679.09;;;9.50;54.07
64158;BME280;50449;51.528;5.076;2023-03-15T08:20:57;101685.50;;;9.49;54.06
64158;BME280;50449;51.528;5.076;2023-03-15T08:23:23;101690.69;;;9.51;53.81
64158;BME280;50449;51.528;5.076;2023-03-15T08:25:48;101691.75;;;9.50;54.16
64158;BME280;50449;51.528;5.076;2023-03-15T08:28:14;101692.78;;;9.49;54.09
64158;BME280;50449;51.528;5.076;2023-03-15T08:30:39;101694.66;;;9.48;54.14
64158;BME280;50449;51.528;5.076;2023-03-15T08:33:06;101687.38;;;9.49;54.23
64158;BME280;50449;51.528;5.076;2023-03-15T08:35:32;101693.59;;;9.49;53.92
64158;BME280;50449;51.528;5.076;2023-03-15T08:37:59;101698.16;;;9.49;53.96
64158;BME280;50449;51.528;5.076;2023-03-15T08:40:27;101699.00;;;9.49;54.13
64158;BME280;50449;51.528;5.076;2023-03-15T08:42:53;101713.34;;;9.50;54.04
64158;BME280;50449;51.528;5.076;2023-03-15T08:45:20;101714.16;;;9.50;54.00
64158;BME280;50449;51.528;5.076;2023-03-15T08:47:48;101710.63;;;9.50;53.92
64158;BME280;50449;51.528;5.076;2023-03-15T08:50:15;101709.78;;;9.49;53.77
64158;BME280;50449;51.528;5.076;2023-03-15T08:52:41;101710.00;;;9.48;54.10
64158;BME280;50449;51.528;5.076;2023-03-15T08:55:07;101715.41;;;9.48;54.01
64158;BME280;50449;51.528;5.076;2023-03-15T08:57:32;101718.09;;;9.48;54.05
64158;BME280;50449;51.528;5.076;2023-03-15T08:59:59;101719.94;;;9.47;54.19
64158;BME280;50449;51.528;5.076;2023-03-15T09:02:26;101724.31;;;9.48;53.95
64158;BME280;50449;51.528;5.076;2023-03-15T09:04:51;101722.44;;;9.49;54.24
64158;BME280;50449;51.528;5.076;2023-03-15T09:07:17;101732.41;;;9.48;54.27
64158;BME280;50449;51.528;5.076;2023-03-15T09:09:42;101725.13;;;9.49;53.93
64158;BME280;50449;51.528;5.076;2023-03-15T09:12:13;101728.66;;;9.49;54.13
64158;BME280;50449;51.528;5.076;2023-03-15T09:14:39;101725.97;;;9.49;54.09
64158;BME280;50449;51.528;5.076;2023-03-15T09:17:04;101720.56;;;9.49;53.99
64158;BME280;50449;51.528;5.076;2023-03-15T09:19:30;101727.63;;;9.50;53.90
64158;BME280;50449;51.528;5.076;2023-03-15T09:21:56;101719.53;;;9.50;53.83
64158;BME280;50449;51.528;5.076;2023-03-15T09:24:22;101722.25;;;9.50;54.01
64158;BME280;50449;51.528;5.076;2023-03-15T09:26:47;101721.19;;;9.51;54.09
64158;BME280;50449;51.528;5.076;2023-03-15T09:29:13;101719.31;;;9.52;54.04
64158;BME280;50449;51.528;5.076;2023-03-15T09:31:38;101723.88;;;9.51;53.98
64158;BME280;50449;51.528;5.076;2023-03-15T09:34:04;101724.50;;;9.53;54.38
64158;BME280;50449;51.528;5.076;2023-03-15T09:36:30;101722.63;;;9.54;54.26
64158;BME280;50449;51.528;5.076;2023-03-15T09:38:56;101717.25;;;9.54;54.18
64158;BME280;50449;51.528;5.076;2023-03-15T09:41:43;101728.03;;;9.54;53.98
64158;BME280;50449;51.528;5.076;2023-03-15T09:49:44;101727.63;;;9.50;54.22
64158;BME280;50449;51.528;5.076;2023-03-15T09:54:45;101733.03;;;9.50;54.06
64158;BME280;50449;51.528;5.076;2023-03-15T09:57:21;101738.44;;;9.50;54.20
64158;BME280;50449;51.528;5.076;2023-03-15T09:59:50;101738.44;;;9.50;54.16
64158;BME280;50449;51.528;5.076;2023-03-15T10:02:29;101733.03;;;9.50;54.29
64158;BME280;50449;51.528;5.076;2023-03-15T10:05:05;101741.13;;;9.50;54.34
64158;BME280;50449;51.528;5.076;2023-03-15T10:07:34;101736.75;;;9.49;54.37
64158;BME280;50449;51.528;5.076;2023-03-15T10:10:00;101737.59;;;9.50;54.56
64158;BME280;50449;51.528;5.076;2023-03-15T10:12:30;101745.69;;;9.50;54.36
64158;BME280;50449;51.528;5.076;2023-03-15T10:15:14;101743.81;;;9.50;54.26
64158;BME280;50449;51.528;5.076;2023-03-15T10:20:18;101732.81;;;9.52;54.39
64158;BME280;50449;51.528;5.076;2023-03-15T10:22:57;101745.25;;;9.53;54.50
64158;BME280;50449;51.528;5.076;2023-03-15T10:25:26;101744.22;;;9.54;54.64
64158;BME280;50449;51.528;5.076;2023-03-15T10:30:35;101739.25;;;9.58;54.50
64158;BME280;50449;51.528;5.076;2023-03-15T10:33:05;101741.72;;;9.59;54.50
64158;BME280;50449;51.528;5.076;2023-03-15T10:35:39;101758.53;;;9.61;54.60
64158;BME280;50449;51.528;5.076;2023-03-15T10:38:17;101760.16;;;9.62;54.35
64158;BME280;50449;51.528;5.076;2023-03-15T10:40:57;101751.88;;;9.64;54.65
64158;BME280;50449;51.528;5.076;2023-03-15T10:43:27;101750.81;;;9.65;54.59
64158;BME280;50449;51.528;5.076;2023-03-15T10:46:24;101759.75;;;9.65;54.50
64158;BME280;50449;51.528;5.076;2023-03-15T10:48:59;101766.81;;;9.66;54.61
64158;BME280;50449;51.528;5.076;2023-03-15T10:51:36;101759.34;;;9.68;54.57
64158;BME280;50449;51.528;5.076;2023-03-15T10:54:11;101773.44;;;9.70;54.71
64158;BME280;50449;51.528;5.076;2023-03-15T10:59:20;101770.94;;;9.75;54.46
64158;BME280;50449;51.528;5.076;2023-03-15T11:01:50;101768.00;;;9.77;54.38
64158;BME280;50449;51.528;5.076;2023-03-15T11:04:24;101768.63;;;9.79;53.97
64158;BME280;50449;51.528;5.076;2023-03-15T11:09:23;101779.84;;;9.83;54.37
64158;BME280;50449;51.528;5.076;2023-03-15T11:12:00;101777.16;;;9.83;54.48
64158;BME280;50449;51.528;5.076;2023-03-15T11:14:38;101780.88;;;9.82;54.36
64158;BME280;50449;51.528;5.076;2023-03-15T11:17:07;101796.03;;;9.83;54.49
64158;BME280;50449;51.528;5.076;2023-03-15T11:19:38;101798.50;;;9.84;54.54
64158;BME280;50449;51.528;5.076;2023-03-15T11:22:11;101801.84;;;9.86;54.56
64158;BME280;50449;51.528;5.076;2023-03-15T11:24:38;101807.03;;;9.88;54.60
64158;BME280;50449;51.528;5.076;2023-03-15T11:27:11;101804.94;;;9.90;54.84
64158;BME280;50449;51.528;5.076;2023-03-15T11:29:39;101809.06;;;9.92;54.74
64158;BME280;50449;51.528;5.076;2023-03-15T11:32:19;101795.38;;;9.94;54.79
64158;BME280;50449;51.528;5.076;2023-03-15T11:40:19;101802.00;;;9.98;54.92
64158;BME280;50449;51.528;5.076;2023-03-15T11:43:08;101799.09;;;10.00;54.67
64158;BME280;50449;51.528;5.076;2023-03-15T11:45:41;101800.53;;;10.02;54.50
64158;BME280;50449;51.528;5.076;2023-03-15T11:48:47;101793.88;;;10.05;54.76
64158;BME280;50449;51.528;5.076;2023-03-15T11:51:15;101788.47;;;10.05;54.95
64158;BME280;50449;51.528;5.076;2023-03-15T11:53:57;101789.09;;;10.07;54.97
64158;BME280;50449;51.528;5.076;2023-03-15T11:56:45;101783.69;;;10.07;55.37
64158;BME280;50449;51.528;5.076;2023-03-15T11:59:13;101782.44;;;10.09;55.33
64158;BME280;50449;51.528;5.076;2023-03-15T12:01:48;101788.47;;;10.11;55.16
64158;BME280;50449;51.528;5.076;2023-03-15T12:04:38;101782.81;;;10.13;55.19
64158;BME280;50449;51.528;5.076;2023-03-15T12:07:28;101777.03;;;10.16;55.24
64158;BME280;50449;51.528;5.076;2023-03-15T12:20:25;101782.78;;;10.26;54.91
64158;BME280;50449;51.528;5.076;2023-03-15T12:28:37;101783.22;;;10.30;54.87
64158;BME280;50449;51.528;5.076;2023-03-15T12:31:06;101779.47;;;10.31;54.85
64158;BME280;50449;51.528;5.076;2023-03-15T12:33:33;101780.50;;;10.30;55.01
64158;BME280;50449;51.528;5.076;2023-03-15T12:36:10;101776.16;;;10.29;54.80
64158;BME280;50449;51.528;5.076;2023-03-15T12:38:53;101775.94;;;10.30;54.72
64158;BME280;50449;51.528;5.076;2023-03-15T12:47:00;101777.16;;;10.34;54.91
64158;BME280;50449;51.528;5.076;2023-03-15T12:49:44;101779.66;;;10.36;54.97
64158;BME280;50449;51.528;5.076;2023-03-15T12:55:04;101775.47;;;10.40;54.94
64158;BME280;50449;51.528;5.076;2023-03-15T12:57:39;101772.56;;;10.42;54.97
64158;BME280;50449;51.528;5.076;2023-03-15T13:00:21;101772.94;;;10.45;54.87
64158;BME280;50449;51.528;5.076;2023-03-15T13:02:49;101770.03;;;10.47;55.14
64158;BME280;50449;51.528;5.076;2023-03-15T13:05:22;101763.38;;;10.49;54.96
64158;BME280;50449;51.528;5.076;2023-03-15T13:10:36;101765.88;;;10.51;55.01
64158;BME280;50449;51.528;5.076;2023-03-15T13:18:28;101768.50;;;10.57;55.09
64158;BME280;50449;51.528;5.076;2023-03-15T13:21:12;101771.63;;;10.61;55.15
64158;BME280;50449;51.528;5.076;2023-03-15T13:23:42;101759.75;;;10.62;54.63
64158;BME280;50449;51.528;5.076;2023-03-15T13:26:22;101762.03;;;10.65;54.90
64158;BME280;50449;51.528;5.076;2023-03-15T13:31:45;101756.84;;;10.64;54.99
64158;BME280;50449;51.528;5.076;2023-03-15T13:34:13;101755.59;;;10.66;55.17
64158;BME280;50449;51.528;5.076;2023-03-15T13:37:13;101763.47;;;10.68;55.09
64158;BME280;50449;51.528;5.076;2023-03-15T13:39:33;101764.28;;;10.68;54.80
64158;BME280;50449;51.528;5.076;2023-03-15T13:42:20;101771.97;;;10.71;55.09
64158;BME280;50449;51.528;5.076;2023-03-15T13:45:01;101766.13;;;10.74;55.16
64158;BME280;50449;51.528;5.076;2023-03-15T13:47:26;101772.97;;;10.77;55.02
64158;BME280;50449;51.528;5.076;2023-03-15T13:49:52;101774.41;;;10.79;54.93
64158;BME280;50449;51.528;5.076;2023-03-15T13:52:17;101776.91;;;10.81;54.91
64158;BME280;50449;51.528;5.076;2023-03-15T13:54:43;101781.03;;;10.83;55.03
64158;BME280;50449;51.528;5.076;2023-03-15T13:57:19;101775.19;;;10.87;55.07
64158;BME280;50449;51.528;5.076;2023-03-15T14:00:07;101766.84;;;10.88;55.22
64158;BME280;50449;51.528;5.076;2023-03-15T14:05:11;101780.16;;;10.90;55.16
64158;BME280;50449;51.528;5.076;2023-03-15T14:07:39;101773.47;;;10.92;55.08
64158;BME280;50449;51.528;5.076;2023-03-15T14:12:43;101772.00;;;10.96;55.16
64158;BME280;50449;51.528;5.076;2023-03-15T14:18:10;101779.22;;;11.02;54.90